Time;durP1;ratioP1;P1;durP2;ratioP2;P2;SDS_P1;SDS_P2;PMS_P1;PMS_P2;Temp;Humidity;BMP_temperature;BMP_pressure;BME280_temperature;BME280_humidity;BME280_pressure;Samples;Min_cycle;Max_cycle;Signal;HPM_P1;HPM_P2
2022/01/13 00:02:24;;;;;;;;;;;;;;;-6.76;61.40;101388.72;5013672;28;836;-58
2022/01/13 00:04:51;;;;;;;;;;;;;;;-6.56;61.64;101390.88;5013465;28;940;-58
2022/01/13 00:07:17;;;;;;;;;;;;;;;-6.50;61.01;101381.81;5013626;28;821;-58
2022/01/13 00:09:44;;;;;;;;;;;;;;;-6.49;61.11;101378.03;5013753;28;876;-58
2022/01/13 00:12:13;;;;;;;;;;;;;;;-6.57;61.43;101381.19;4995923;28;1145;-58
2022/01/13 00:14:54;;;;;;;;;;;;;;;-6.64;62.23;101396.69;5013371;28;849;-58
2022/01/13 00:20:11;;;;;;;;;;;;;;;-6.88;64.91;101404.94;5013238;28;1890;-58
2022/01/13 00:22:47;;;;;;;;;;;;;;;-6.81;62.50;101391.31;5013525;28;896;-58
2022/01/13 00:25:17;;;;;;;;;;;;;;;-6.80;61.98;101393.78;5013214;28;864;-58
2022/01/13 00:27:50;;;;;;;;;;;;;;;-6.76;61.40;101388.72;5013150;28;954;-58
2022/01/13 00:30:18;;;;;;;;;;;;;;;-6.62;60.86;101391.88;5012977;28;884;-57
2022/01/13 00:32:45;;;;;;;;;;;;;;;-6.52;61.08;101410.84;5013108;28;1102;-59
2022/01/13 00:35:12;;;;;;;;;;;;;;;-6.39;60.76;101399.69;4993654;28;1001;-58
2022/01/13 00:37:40;;;;;;;;;;;;;;;-6.42;60.54;101410.13;4993434;28;859;-58
2022/01/13 00:40:07;;;;;;;;;;;;;;;-6.41;60.48;101411.78;4993274;28;1906;-57
2022/01/13 00:42:33;;;;;;;;;;;;;;;-6.46;60.29;101417.09;4993254;28;979;-57
2022/01/13 00:45:01;;;;;;;;;;;;;;;-6.46;61.22;101412.53;4993332;28;841;-58
2022/01/13 00:47:29;;;;;;;;;;;;;;;-6.48;60.65;101403.91;4993277;28;860;-58
2022/01/13 00:49:57;;;;;;;;;;;;;;;-6.45;60.69;101410.66;4993217;28;852;-57
2022/01/13 00:52:25;;;;;;;;;;;;;;;-6.46;61.00;101414.41;4993305;28;948;-58
2022/01/13 00:54:52;;;;;;;;;;;;;;;-6.60;62.13;101422.00;4993113;28;909;-57
2022/01/13 00:57:18;;;;;;;;;;;;;;;-6.77;64.79;101422.03;4993086;28;891;-57
2022/01/13 00:59:45;;;;;;;;;;;;;;;-7.00;66.16;101421.19;4992878;28;1882;-58
2022/01/13 01:02:11;;;;;;;;;;;;;;;-7.24;68.66;101425.91;4992989;28;1006;-58
2022/01/13 01:04:38;;;;;;;;;;;;;;;-7.41;69.62;101428.56;4992951;28;849;-57
2022/01/13 01:07:05;;;;;;;;;;;;;;;-7.42;70.20;101426.16;4992296;28;978;-58
2022/01/13 01:09:40;;;;;;;;;;;;;;;-7.18;67.47;101424.91;4993166;28;873;-57
2022/01/13 01:12:08;;;;;;;;;;;;;;;-7.03;66.19;101426.22;4992787;28;849;-58
2022/01/13 01:14:39;;;;;;;;;;;;;;;-6.93;65.41;101421.03;4992692;28;871;-57
2022/01/13 01:17:06;;;;;;;;;;;;;;;-6.96;65.67;101429.56;4993441;28;817;-58
2022/01/13 01:19:33;;;;;;;;;;;;;;;-7.16;67.20;101429.25;4992597;28;1882;-58
2022/01/13 01:23:10;;;;;;;;;;;;;;;-7.47;68.80;101429.53;4993142;28;801;-58
2022/01/13 01:25:06;;;;;;;;;;;;;;;-7.52;69.88;101424.09;4979314;28;1397;-58
2022/01/13 01:27:40;;;;;;;;;;;;;;;-7.46;69.41;101422.31;4992372;28;928;-58
2022/01/13 01:30:24;;;;;;;;;;;;;;;-7.41;67.82;101422.38;4992427;28;899;-57
2022/01/13 01:32:51;;;;;;;;;;;;;;;-7.26;68.16;101425.31;4993064;28;1446;-58
2022/01/13 01:35:19;;;;;;;;;;;;;;;-7.35;69.14;101436.72;5012629;28;1039;-58
2022/01/13 01:37:46;;;;;;;;;;;;;;;-7.22;68.20;101431.84;5012190;28;868;-58
2022/01/13 01:40:13;;;;;;;;;;;;;;;-7.12;67.05;101425.03;5012291;28;1966;-58
2022/01/13 01:42:40;;;;;;;;;;;;;;;-7.09;66.90;101430.69;5012263;28;837;-57
2022/01/13 01:45:07;;;;;;;;;;;;;;;-7.02;67.09;101427.84;5012314;28;833;-58
2022/01/13 01:47:35;;;;;;;;;;;;;;;-7.10;66.06;101431.78;5012262;28;833;-58
2022/01/13 01:50:10;;;;;;;;;;;;;;;-7.03;65.96;101426.22;5011881;28;921;-58
2022/01/13 01:52:36;;;;;;;;;;;;;;;-6.99;65.82;101432.75;5011806;28;860;-57
2022/01/13 01:55:03;;;;;;;;;;;;;;;-6.99;66.27;101422.81;5011741;28;845;-58
2022/01/13 01:57:30;;;;;;;;;;;;;;;-7.21;67.21;101438.03;5011703;28;907;-58
2022/01/13 01:59:56;;;;;;;;;;;;;;;-7.22;68.11;101428.34;5011685;28;1887;-58
2022/01/13 02:02:25;;;;;;;;;;;;;;;-7.22;68.89;101436.41;5011817;28;932;-58
2022/01/13 02:04:52;;;;;;;;;;;;;;;-7.48;69.75;101435.16;5011691;28;873;-58
2022/01/13 02:07:18;;;;;;;;;;;;;;;-7.84;71.83;101432.63;5011645;28;856;-58
2022/01/13 02:09:50;;;;;;;;;;;;;;;-7.96;72.86;101436.41;5011680;28;836;-58
2022/01/13 02:12:29;;;;;;;;;;;;;;;-7.98;72.58;101433.16;5011664;28;868;-58
2022/01/13 02:15:16;;;;;;;;;;;;;;;-7.94;72.39;101439.69;5011643;28;840;-58
2022/01/13 02:17:42;;;;;;;;;;;;;;;-7.96;72.33;101437.22;5011638;28;903;-58
2022/01/13 02:20:11;;;;;;;;;;;;;;;-7.98;73.99;101439.34;5015571;28;1882;-58
2022/01/13 02:22:37;;;;;;;;;;;;;;;-7.96;73.95;101439.09;5015622;28;860;-58
2022/01/13 02:25:05;;;;;;;;;;;;;;;-7.87;74.02;101443.88;5015527;28;887;-58
2022/01/13 02:27:31;;;;;;;;;;;;;;;-7.99;74.55;101435.03;5015401;28;876;-58
2022/01/13 02:29:58;;;;;;;;;;;;;;;-8.09;73.89;101432.94;5015439;28;852;-58
2022/01/13 02:32:24;;;;;;;;;;;;;;;-8.18;74.80;101429.03;5015428;28;855;-59
2022/01/13 02:34:50;;;;;;;;;;;;;;;-7.96;72.88;101436.41;5015337;28;1399;-58
2022/01/13 02:37:17;;;;;;;;;;;;;;;-7.89;73.04;101431.75;5015288;28;955;-58
2022/01/13 02:39:43;;;;;;;;;;;;;;;-8.09;73.53;101429.47;5015425;28;1977;-58
2022/01/13 02:42:14;;;;;;;;;;;;;;;-8.34;75.03;101432.44;5015418;28;793;-58
2022/01/13 02:45:15;;;;;;;;;;;;;;;-8.18;74.40;101420.16;5015216;28;821;-58
2022/01/13 02:50:11;;;;;;;;;;;;;;;-7.65;71.93;101424.41;5015051;28;691;-58
2022/01/13 02:52:38;;;;;;;;;;;;;;;-7.54;70.86;101423.50;5014940;28;860;-58
2022/01/13 02:55:04;;;;;;;;;;;;;;;-7.51;71.00;101416.84;5014952;28;883;-58
2022/01/13 02:57:31;;;;;;;;;;;;;;;-7.45;71.06;101432.00;5014891;28;813;-58
2022/01/13 02:59:58;;;;;;;;;;;;;;;-7.47;71.03;101432.22;5014759;28;1949;-58
2022/01/13 03:02:30;;;;;;;;;;;;;;;-7.48;70.70;101417.19;5014847;28;809;-58
2022/01/13 03:04:57;;;;;;;;;;;;;;;-7.45;71.20;101423.94;5014772;28;896;-58
2022/01/13 03:07:25;;;;;;;;;;;;;;;-7.59;71.20;101428.81;5015097;28;887;-58
2022/01/13 03:09:52;;;;;;;;;;;;;;;-7.63;71.27;101424.97;5014657;28;852;-58
2022/01/13 03:12:19;;;;;;;;;;;;;;;-7.55;71.33;101421.06;5014636;28;916;-58
2022/01/13 03:14:45;;;;;;;;;;;;;;;-7.51;70.54;101422.22;5014484;28;932;-58
2022/01/13 03:17:12;;;;;;;;;;;;;;;-7.41;71.39;101427.75;5014536;28;900;-57
2022/01/13 03:19:38;;;;;;;;;;;;;;;-7.35;70.95;101424.09;5014471;28;1890;-58
2022/01/13 03:22:05;;;;;;;;;;;;;;;-7.32;71.12;101423.59;5014559;28;836;-58
2022/01/13 03:24:31;;;;;;;;;;;;;;;-7.36;71.45;101418.97;5014587;28;817;-57
2022/01/13 03:27:01;;;;;;;;;;;;;;;-7.30;70.91;101401.88;5014522;28;852;-57
2022/01/13 03:29:29;;;;;;;;;;;;;;;-7.20;71.48;101402.84;5013973;28;1063;-58
2022/01/13 03:31:55;;;;;;;;;;;;;;;-7.11;71.24;101402.44;5014021;28;825;-57
2022/01/13 03:34:21;;;;;;;;;;;;;;;-7.05;72.10;101406.84;5013994;28;1334;-58
2022/01/13 03:36:47;;;;;;;;;;;;;;;-7.08;72.02;101402.78;5014219;28;836;-58
2022/01/13 03:39:14;;;;;;;;;;;;;;;-7.00;71.31;101391.63;5014294;28;880;-57
2022/01/13 03:41:41;;;;;;;;;;;;;;;-6.91;71.21;101397.38;4996649;28;1972;-58
2022/01/13 03:44:16;;;;;;;;;;;;;;;-6.94;71.79;101399.75;5014345;28;884;-58
2022/01/13 03:46:42;;;;;;;;;;;;;;;-6.91;70.92;101401.94;5014012;28;896;-57
2022/01/13 03:49:09;;;;;;;;;;;;;;;-6.84;71.83;101413.34;5014004;28;872;-58
2022/01/13 03:51:50;;;;;;;;;;;;;;;-6.85;71.57;101412.53;5013943;28;852;-58
2022/01/13 03:54:23;;;;;;;;;;;;;;;-6.83;72.46;101420.34;5013982;28;877;-58
2022/01/13 03:57:08;;;;;;;;;;;;;;;-6.85;72.13;101422.47;5013723;28;836;-58
2022/01/13 03:59:53;;;;;;;;;;;;;;;-6.74;73.02;101416.19;5013669;28;1878;-58
2022/01/13 04:02:20;;;;;;;;;;;;;;;-6.82;73.00;101425.47;5013725;28;862;-58
2022/01/13 04:04:47;;;;;;;;;;;;;;;-6.85;73.07;101430.53;5013873;28;863;-58
2022/01/13 04:07:15;;;;;;;;;;;;;;;-7.00;74.75;101423.88;5014040;28;860;-58
2022/01/13 04:09:41;;;;;;;;;;;;;;;-6.97;74.67;101427.13;5013527;28;825;-58
2022/01/13 04:12:11;;;;;;;;;;;;;;;-7.03;75.99;101435.09;5013699;28;837;-58
2022/01/13 04:17:08;;;;;;;;;;;;;;;-7.02;76.36;101441.28;5013414;28;826;-58
2022/01/13 04:19:35;;;;;;;;;;;;;;;-6.89;76.75;101449.03;5013656;28;1885;-58
2022/01/13 04:22:02;;;;;;;;;;;;;;;-6.92;76.29;101449.50;5013380;28;840;-58
2022/01/13 04:24:29;;;;;;;;;;;;;;;-7.04;76.28;101441.56;5013180;28;840;-58
2022/01/13 04:26:57;;;;;;;;;;;;;;;-7.15;77.70;101444.31;5013265;28;884;-58
2022/01/13 04:29:32;;;;;;;;;;;;;;;-7.02;76.82;101436.75;5013048;28;935;-58
2022/01/13 04:31:59;;;;;;;;;;;;;;;-6.95;76.65;101439.28;5013052;28;876;-58
2022/01/13 04:34:26;;;;;;;;;;;;;;;-6.97;77.27;101462.09;5013010;28;1301;-58
2022/01/13 04:36:54;;;;;;;;;;;;;;;-6.72;76.22;101432.06;5013060;28;859;-58
2022/01/13 04:39:20;;;;;;;;;;;;;;;-6.58;76.07;101454.88;5012964;28;1902;-58
2022/01/13 04:41:48;;;;;;;;;;;;;;;-6.62;76.10;101456.41;5011990;28;815;-57
2022/01/13 04:44:18;;;;;;;;;;;;;;;-6.65;76.10;101468.50;5012904;28;797;-58
2022/01/13 04:46:46;;;;;;;;;;;;;;;-6.58;76.02;101474.50;5013731;28;766;-58
2022/01/13 04:49:13;;;;;;;;;;;;;;;-6.55;75.81;101473.19;5013069;28;852;-58
2022/01/13 04:51:40;;;;;;;;;;;;;;;-6.56;75.69;101482.34;5013152;28;965;-58
2022/01/13 04:54:07;;;;;;;;;;;;;;;-6.66;75.75;101457.97;4995373;28;817;-58
2022/01/13 04:56:43;;;;;;;;;;;;;;;-6.57;76.43;101480.72;5013557;28;816;-57
2022/01/13 04:59:10;;;;;;;;;;;;;;;-6.51;76.13;101478.91;5012556;28;955;-56
2022/01/13 05:01:37;;;;;;;;;;;;;;;-6.59;76.32;101477.47;5012543;28;1894;-56
2022/01/13 05:04:04;;;;;;;;;;;;;;;-6.74;77.00;101488.81;5012637;28;817;-56
2022/01/13 05:06:31;;;;;;;;;;;;;;;-6.80;77.27;101482.53;5012587;28;857;-57
2022/01/13 05:08:58;;;;;;;;;;;;;;;-6.84;78.00;101484.06;5012505;28;927;-57
2022/01/13 05:11:24;;;;;;;;;;;;;;;-6.82;78.67;101499.97;5012495;28;970;-57
2022/01/13 05:13:51;;;;;;;;;;;;;;;-6.77;78.07;101484.69;5012443;28;813;-57
2022/01/13 05:21:20;;;;;;;;;;;;;;;-6.70;78.57;101489.09;5012176;28;1972;-56
2022/01/13 05:23:49;;;;;;;;;;;;;;;-6.70;78.86;101491.78;4994429;28;1293;-56
2022/01/13 05:26:15;;;;;;;;;;;;;;;-6.61;78.52;101499.22;5012252;28;923;-57
2022/01/13 05:28:42;;;;;;;;;;;;;;;-6.58;78.49;101497.91;5012105;28;724;-56
2022/01/13 05:31:09;;;;;;;;;;;;;;;-6.45;78.76;101486.78;5012137;28;821;-56
2022/01/13 05:33:36;;;;;;;;;;;;;;;-6.29;78.44;101498.59;5011847;28;1135;-56
2022/01/13 05:36:02;;;;;;;;;;;;;;;-6.18;77.57;101499.56;5012514;28;916;-56
2022/01/13 05:38:29;;;;;;;;;;;;;;;-6.04;76.43;101498.13;5012110;28;833;-56
2022/01/13 05:40:58;;;;;;;;;;;;;;;-6.04;76.38;101495.44;5011951;28;1977;-57
2022/01/13 05:43:27;;;;;;;;;;;;;;;-6.08;76.88;101483.53;5011873;28;1003;-57
2022/01/13 05:45:53;;;;;;;;;;;;;;;-5.90;76.49;101486.94;5012476;28;766;-56
2022/01/13 05:48:20;;;;;;;;;;;;;;;-5.81;76.08;101494.31;5011913;28;931;-56
2022/01/13 05:50:46;;;;;;;;;;;;;;;-5.76;75.31;101489.00;5011873;28;844;-57
2022/01/13 05:53:12;;;;;;;;;;;;;;;-5.83;75.57;101482.16;5011488;28;856;-57
2022/01/13 05:55:39;;;;;;;;;;;;;;;-5.93;76.31;101490.97;5011659;28;909;-56
2022/01/13 05:58:06;;;;;;;;;;;;;;;-6.00;76.29;101501.91;5011814;28;876;-57
2022/01/13 06:00:33;;;;;;;;;;;;;;;-5.87;76.58;101489.94;5011597;28;1957;-57
2022/01/13 06:02:58;;;;;;;;;;;;;;;-5.81;76.27;101478.16;5011862;28;848;-57
2022/01/13 06:05:26;;;;;;;;;;;;;;;-5.68;75.33;101495.81;5011640;28;900;-57
2022/01/13 06:07:53;;;;;;;;;;;;;;;-5.59;75.66;101510.47;5011584;28;938;-57
2022/01/13 06:10:20;;;;;;;;;;;;;;;-5.39;75.67;101499.09;5011655;28;840;-57
2022/01/13 06:12:48;;;;;;;;;;;;;;;-5.31;74.37;101511.31;5011628;28;942;-56
2022/01/13 06:15:18;;;;;;;;;;;;;;;-5.12;74.04;101509.06;5011561;28;985;-57
2022/01/13 06:17:45;;;;;;;;;;;;;;;-4.80;73.90;101517.16;5011626;28;824;-57
2022/01/13 06:20:13;;;;;;;;;;;;;;;-4.78;72.85;101515.03;5011846;28;1894;-57
2022/01/13 06:22:40;;;;;;;;;;;;;;;-4.56;72.21;101506.81;5011729;28;796;-57
2022/01/13 06:25:08;;;;;;;;;;;;;;;-4.42;72.99;101517.97;5011819;28;849;-57
2022/01/13 06:27:35;;;;;;;;;;;;;;;-4.35;71.24;101532.06;5011637;28;817;-57
2022/01/13 06:30:03;;;;;;;;;;;;;;;-4.24;71.25;101524.84;5011444;28;896;-57
2022/01/13 06:32:29;;;;;;;;;;;;;;;-3.93;70.52;101525.81;5011431;28;942;-57
2022/01/13 06:34:56;;;;;;;;;;;;;;;-3.72;69.85;101534.00;5011510;28;1434;-57
2022/01/13 06:37:23;;;;;;;;;;;;;;;-3.75;69.91;101527.25;5011497;28;904;-57
2022/01/13 06:39:49;;;;;;;;;;;;;;;-3.90;69.07;101541.50;5011512;28;1922;-57
2022/01/13 06:42:17;;;;;;;;;;;;;;;-3.92;69.48;101540.94;5011653;28;888;-57
2022/01/13 06:44:44;;;;;;;;;;;;;;;-4.30;72.14;101520.47;5011419;28;983;-56
2022/01/13 06:47:10;;;;;;;;;;;;;;;-3.78;69.62;101553.97;5011605;28;833;-56
2022/01/13 06:49:39;;;;;;;;;;;;;;;-3.52;71.02;101544.91;5011567;28;934;-56
2022/01/13 06:52:06;;;;;;;;;;;;;;;-3.14;70.29;101555.53;5011196;28;829;-56
2022/01/13 06:54:32;;;;;;;;;;;;;;;-3.10;68.42;101552.03;5011310;28;896;-56
2022/01/13 06:56:59;;;;;;;;;;;;;;;-3.09;69.17;101561.78;5011196;28;1007;-57
2022/01/13 06:59:25;;;;;;;;;;;;;;;-3.02;68.72;101555.31;5011470;28;1890;-57
2022/01/13 07:01:52;;;;;;;;;;;;;;;-2.99;68.21;101552.06;5011469;28;872;-57
2022/01/13 07:04:19;;;;;;;;;;;;;;;-2.57;69.58;101559.94;5011221;28;955;-57
2022/01/13 07:06:46;;;;;;;;;;;;;;;-2.07;68.51;101558.25;5014536;28;951;-57
2022/01/13 07:09:14;;;;;;;;;;;;;;;-1.93;63.83;101554.97;5014971;28;837;-56
2022/01/13 07:11:41;;;;;;;;;;;;;;;-2.03;64.36;101552.28;5014789;28;922;-56
2022/01/13 07:14:07;;;;;;;;;;;;;;;-2.09;66.54;101559.59;5015054;28;899;-56
2022/01/13 07:16:35;;;;;;;;;;;;;;;-2.21;64.83;101557.19;5014830;28;943;-56
2022/01/13 07:19:02;;;;;;;;;;;;;;;-1.92;67.73;101556.56;5014727;28;932;-57
2022/01/13 07:21:29;;;;;;;;;;;;;;;-1.99;66.74;101556.06;5014589;28;1886;-56
2022/01/13 07:23:56;;;;;;;;;;;;;;;-1.81;65.18;101546.50;5014557;28;967;-56
2022/01/13 07:26:22;;;;;;;;;;;;;;;-2.40;64.58;101550.72;5014475;28;938;-55
2022/01/13 07:28:49;;;;;;;;;;;;;;;-2.12;68.65;101550.13;5014605;28;903;-56
2022/01/13 07:31:16;;;;;;;;;;;;;;;-1.45;70.50;101556.16;5014784;28;819;-55
2022/01/13 07:33:42;;;;;;;;;;;;;;;-1.48;67.04;101551.25;5014119;28;1405;-57
2022/01/13 07:36:09;;;;;;;;;;;;;;;-1.74;67.10;101555.19;4997082;28;907;-57
2022/01/13 07:38:35;;;;;;;;;;;;;;;-1.45;68.42;101560.75;5014129;28;837;-55
2022/01/13 07:41:03;;;;;;;;;;;;;;;-1.10;67.25;101553.50;5014619;28;1975;-55
2022/01/13 07:43:31;;;;;;;;;;;;;;;-1.04;65.00;101553.19;5014444;28;896;-56
2022/01/13 07:45:58;;;;;;;;;;;;;;;-1.33;64.10;101544.94;5014289;28;916;-58
2022/01/13 07:48:24;;;;;;;;;;;;;;;-1.91;63.29;101556.31;5014248;28;829;-55
2022/01/13 07:50:52;;;;;;;;;;;;;;;-1.87;67.32;101546.53;5013864;28;960;-55
2022/01/13 07:53:18;;;;;;;;;;;;;;;-1.94;62.82;101553.31;5014590;28;825;-56
2022/01/13 07:55:45;;;;;;;;;;;;;;;-2.14;63.77;101562.31;5013857;28;1064;-56
2022/01/13 07:58:11;;;;;;;;;;;;;;;-2.09;63.07;101557.72;5014176;28;813;-56
2022/01/13 08:00:38;;;;;;;;;;;;;;;-2.12;62.50;101566.38;5013682;28;1959;-56
2022/01/13 08:03:04;;;;;;;;;;;;;;;-2.20;64.42;101556.09;5013723;28;860;-55
2022/01/13 08:05:31;;;;;;;;;;;;;;;-2.01;65.29;101560.94;5013676;28;884;-56
2022/01/13 08:07:58;;;;;;;;;;;;;;;-1.74;62.92;101541.63;5013638;28;856;-55
2022/01/13 08:10:25;;;;;;;;;;;;;;;-2.00;64.47;101560.69;5013631;28;871;-56
2022/01/13 08:12:52;;;;;;;;;;;;;;;-1.94;64.08;101564.16;5013551;28;820;-56
2022/01/13 08:15:18;;;;;;;;;;;;;;;-1.88;64.75;101547.66;5013466;28;943;-55
2022/01/13 08:20:31;;;;;;;;;;;;;;;-2.02;62.01;101551.22;5013428;28;1886;-56
2022/01/13 08:22:58;;;;;;;;;;;;;;;-2.13;62.94;101558.53;5013302;28;884;-55
2022/01/13 08:25:25;;;;;;;;;;;;;;;-2.07;63.68;101544.72;5013371;28;828;-56
2022/01/13 08:27:53;;;;;;;;;;;;;;;-2.04;62.98;101543.34;5013259;28;885;-55
2022/01/13 08:30:20;;;;;;;;;;;;;;;-1.94;61.95;101569.59;5013359;28;928;-57
2022/01/13 08:32:46;;;;;;;;;;;;;;;-1.81;65.35;101565.47;5013091;28;896;-57
2022/01/13 08:35:13;;;;;;;;;;;;;;;-1.73;63.31;101549.50;5013189;28;1463;-55
2022/01/13 08:37:41;;;;;;;;;;;;;;;-1.87;62.47;101564.72;5012996;28;884;-55
2022/01/13 08:40:08;;;;;;;;;;;;;;;-2.04;63.17;101554.19;5012910;28;1969;-55
2022/01/13 08:42:35;;;;;;;;;;;;;;;-1.83;63.49;101551.41;5012963;28;909;-54
2022/01/13 08:45:04;;;;;;;;;;;;;;;-1.80;63.17;101540.03;5012896;28;797;-57
2022/01/13 08:47:31;;;;;;;;;;;;;;;-1.67;62.75;101545.66;5012876;28;836;-55
2022/01/13 08:49:58;;;;;;;;;;;;;;;-1.72;62.73;101532.13;5012790;28;856;-54
2022/01/13 08:52:24;;;;;;;;;;;;;;;-1.90;62.83;101538.13;5012831;28;895;-55
2022/01/13 08:54:52;;;;;;;;;;;;;;;-1.98;62.80;101531.41;5012713;28;950;-53
2022/01/13 08:57:18;;;;;;;;;;;;;;;-2.00;63.11;101517.31;5012697;28;884;-55
2022/01/13 08:59:45;;;;;;;;;;;;;;;-1.87;63.36;101529.47;5012828;28;2000;-54
2022/01/13 09:02:11;;;;;;;;;;;;;;;-1.84;64.15;101509.94;5012498;28;939;-55
2022/01/13 09:04:39;;;;;;;;;;;;;;;-1.85;62.91;101508.31;5012597;28;877;-53
2022/01/13 09:07:06;;;;;;;;;;;;;;;-1.97;63.52;101514.03;5012534;28;825;-53
2022/01/13 09:09:32;;;;;;;;;;;;;;;-2.10;64.38;101511.94;5012527;28;904;-55
2022/01/13 09:11:59;;;;;;;;;;;;;;;-2.29;64.48;101509.00;5012413;28;844;-55
2022/01/13 09:14:27;;;;;;;;;;;;;;;-2.44;64.63;101509.03;5012475;28;793;-54
2022/01/13 09:16:54;;;;;;;;;;;;;;;-2.48;64.53;101506.84;4994710;28;825;-55
2022/01/13 09:19:21;;;;;;;;;;;;;;;-2.29;63.31;101503.56;5012130;28;938;-53
2022/01/13 09:21:48;;;;;;;;;;;;;;;-2.35;64.03;101507.38;5012223;28;1953;-55
2022/01/13 09:24:15;;;;;;;;;;;;;;;-2.51;65.03;101512.81;5012417;28;946;-56
2022/01/13 09:26:43;;;;;;;;;;;;;;;-2.57;64.90;101505.78;5012165;28;837;-56
2022/01/13 09:29:09;;;;;;;;;;;;;;;-2.54;66.14;101502.53;5011692;28;888;-54
2022/01/13 09:31:36;;;;;;;;;;;;;;;-2.24;64.87;101508.16;5012079;28;928;-54
2022/01/13 09:34:04;;;;;;;;;;;;;;;-2.22;64.54;101498.66;5011861;28;1394;-54
2022/01/13 09:36:31;;;;;;;;;;;;;;;-2.24;64.39;101481.91;5012064;28;896;-54
2022/01/13 09:38:59;;;;;;;;;;;;;;;-2.27;64.73;101477.03;5012031;28;889;-54
2022/01/13 09:41:27;;;;;;;;;;;;;;;-2.31;64.97;101479.47;5011797;28;1922;-53
2022/01/13 09:43:54;;;;;;;;;;;;;;;-2.28;64.20;101494.38;5012333;28;848;-54
2022/01/13 09:46:22;;;;;;;;;;;;;;;-2.26;65.46;101476.75;5012143;28;790;-54
2022/01/13 09:48:49;;;;;;;;;;;;;;;-2.25;65.45;101464.00;5011912;28;934;-52
2022/01/13 09:51:16;;;;;;;;;;;;;;;-2.29;65.05;101447.50;5012149;28;845;-53
2022/01/13 09:53:43;;;;;;;;;;;;;;;-2.02;66.18;101468.00;5012407;28;816;-51
2022/01/13 09:56:10;;;;;;;;;;;;;;;-1.64;63.46;101465.66;5011990;28;900;-54
2022/01/13 09:58:37;;;;;;;;;;;;;;;-1.31;63.05;101468.72;5012239;28;927;-54
2022/01/13 10:01:04;;;;;;;;;;;;;;;-1.31;62.62;101460.56;5012269;28;1886;-54
2022/01/13 10:03:30;;;;;;;;;;;;;;;-0.93;62.15;101466.25;5012266;28;844;-55
2022/01/13 10:05:59;;;;;;;;;;;;;;;-0.86;60.49;101464.03;5012323;28;884;-54
2022/01/13 10:08:43;;;;;;;;;;;;;;;-1.22;60.56;101461.59;5011890;28;895;-53
2022/01/13 10:11:28;;;;;;;;;;;;;;;-0.99;61.34;101459.25;5011642;28;813;-53
2022/01/13 10:14:12;;;;;;;;;;;;;;;-0.62;59.82;101462.19;5012001;28;915;-53
2022/01/13 10:16:46;;;;;;;;;;;;;;;-0.42;59.57;101457.63;5011491;28;985;-54
2022/01/13 10:19:32;;;;;;;;;;;;;;;-0.01;58.55;101451.72;5011524;28;900;-54
2022/01/13 10:22:00;;;;;;;;;;;;;;;0.12;59.41;101450.22;5011585;28;912;-55
2022/01/13 10:24:28;;;;;;;;;;;;;;;-0.07;58.17;101456.41;5011678;28;813;-54
2022/01/13 10:27:14;;;;;;;;;;;;;;;-0.36;59.05;101461.94;5011435;28;897;-55
2022/01/13 10:29:41;;;;;;;;;;;;;;;-0.67;59.61;101443.22;5011489;28;864;-54
2022/01/13 10:32:09;;;;;;;;;;;;;;;-0.73;60.01;101429.97;5011828;28;860;-55
2022/01/13 10:34:36;;;;;;;;;;;;;;;-0.92;60.45;101438.00;4993470;28;1325;-54
2022/01/13 10:37:13;;;;;;;;;;;;;;;-0.76;60.50;101431.34;5011538;28;825;-55
2022/01/13 10:39:54;;;;;;;;;;;;;;;-0.91;59.76;101437.72;5011219;28;1910;-55
2022/01/13 10:45:06;;;;;;;;;;;;;;;-1.09;60.89;101436.53;5015190;28;715;-54
2022/01/13 10:47:32;;;;;;;;;;;;;;;-1.17;61.07;101439.84;5015098;28;895;-54
2022/01/13 10:50:04;;;;;;;;;;;;;;;-0.87;60.96;101432.56;4997533;28;849;-56
2022/01/13 10:52:30;;;;;;;;;;;;;;;-0.96;59.99;101435.06;5015445;28;805;-54
2022/01/13 10:55:13;;;;;;;;;;;;;;;-1.25;61.24;101424.97;5015609;28;965;-55
2022/01/13 10:57:44;;;;;;;;;;;;;;;-0.78;61.26;101406.41;5014901;28;809;-54
2022/01/13 11:03:14;;;;;;;;;;;;;;;-0.36;59.76;101410.31;5014898;28;628;-54
2022/01/13 11:05:43;;;;;;;;;;;;;;;-0.45;58.68;101409.31;5014617;28;940;-53
2022/01/13 11:08:11;;;;;;;;;;;;;;;-0.41;60.96;101402.19;5014994;28;896;-54
2022/01/13 11:10:39;;;;;;;;;;;;;;;0.09;59.18;101391.00;5014674;28;931;-53
2022/01/13 11:13:07;;;;;;;;;;;;;;;0.23;59.51;101389.13;5014526;28;884;-55
2022/01/13 11:15:38;;;;;;;;;;;;;;;0.11;58.91;101403.19;5014536;28;956;-54
2022/01/13 11:18:04;;;;;;;;;;;;;;;0.21;59.36;101391.34;5014894;28;924;-55
2022/01/13 11:20:31;;;;;;;;;;;;;;;0.17;58.47;101380.25;5014720;28;1882;-55
2022/01/13 11:22:57;;;;;;;;;;;;;;;-0.23;59.45;101366.13;5014627;28;869;-54
2022/01/13 11:25:26;;;;;;;;;;;;;;;-0.08;58.98;101358.88;5014858;28;777;-56
2022/01/13 11:27:54;;;;;;;;;;;;;;;-0.08;60.78;101351.53;5014392;28;896;-56
2022/01/13 11:30:22;;;;;;;;;;;;;;;-0.07;59.86;101360.47;5014299;28;928;-56
2022/01/13 11:32:50;;;;;;;;;;;;;;;0.06;59.49;101364.38;5014240;28;934;-55
2022/01/13 11:35:27;;;;;;;;;;;;;;;0.06;60.13;101367.09;5014259;28;1492;-55
2022/01/13 11:37:56;;;;;;;;;;;;;;;0.35;59.23;101369.66;5014225;28;952;-56
2022/01/13 11:40:28;;;;;;;;;;;;;;;0.95;59.54;101369.78;5013986;28;1902;-56
2022/01/13 11:42:55;;;;;;;;;;;;;;;1.06;58.73;101343.16;5014434;28;896;-56
2022/01/13 11:45:22;;;;;;;;;;;;;;;1.12;57.30;101347.41;5014378;28;867;-57
2022/01/13 11:47:52;;;;;;;;;;;;;;;1.24;56.93;101352.38;5014232;28;821;-55
2022/01/13 11:50:23;;;;;;;;;;;;;;;1.63;56.13;101335.50;5013945;28;927;-57
2022/01/13 11:56:16;;;;;;;;;;;;;;;0.52;55.36;101358.25;4999929;28;1090;-57
2022/01/13 11:58:47;;;;;;;;;;;;;;;0.31;56.44;101358.56;5013887;28;828;-55
2022/01/13 12:01:18;;;;;;;;;;;;;;;0.01;57.49;101376.13;5013940;28;1886;-54
2022/01/13 12:03:48;;;;;;;;;;;;;;;0.33;58.00;101361.00;5013653;28;864;-55
2022/01/13 12:06:33;;;;;;;;;;;;;;;0.81;57.18;101369.75;5013710;28;976;-55
2022/01/13 12:08:59;;;;;;;;;;;;;;;0.95;55.63;101361.59;5013585;28;899;-55
2022/01/13 12:11:37;;;;;;;;;;;;;;;1.07;55.44;101360.31;4996332;28;913;-55
2022/01/13 12:14:25;;;;;;;;;;;;;;;0.77;56.71;101349.69;4996196;28;970;-55
2022/01/13 12:16:52;;;;;;;;;;;;;;;0.96;57.05;101341.44;4999808;28;1734;-53
2022/01/13 12:19:40;;;;;;;;;;;;;;;0.70;56.09;101357.41;5013577;28;896;-55
2022/01/13 12:22:18;;;;;;;;;;;;;;;1.21;56.04;101370.13;5013653;28;869;-56
2022/01/13 12:24:50;;;;;;;;;;;;;;;1.21;56.15;101361.13;5013261;28;921;-57
2022/01/13 12:27:19;;;;;;;;;;;;;;;0.93;57.27;101371.19;5013291;28;868;-57
2022/01/13 12:29:47;;;;;;;;;;;;;;;1.13;56.95;101370.00;5013134;28;958;-57
2022/01/13 12:32:14;;;;;;;;;;;;;;;1.18;55.00;101370.72;5013133;28;936;-56
2022/01/13 12:34:48;;;;;;;;;;;;;;;1.43;55.85;101369.44;4995629;28;1396;-56
2022/01/13 12:37:15;;;;;;;;;;;;;;;1.27;55.03;101370.84;4995597;28;931;-57
2022/01/13 12:39:42;;;;;;;;;;;;;;;1.18;55.96;101368.00;5012987;28;2372;-57
2022/01/13 12:42:19;;;;;;;;;;;;;;;0.66;57.66;101366.47;5013030;28;894;-57
2022/01/13 12:47:30;;;;;;;;;;;;;;;-0.81;61.20;101379.84;5012897;28;655;-57
2022/01/13 12:49:57;;;;;;;;;;;;;;;-0.91;62.21;101372.59;5012896;28;852;-57
2022/01/13 12:52:25;;;;;;;;;;;;;;;-1.03;61.74;101378.38;4995150;28;1042;-57
2022/01/13 12:54:52;;;;;;;;;;;;;;;-0.65;60.68;101362.25;5012811;28;868;-57
2022/01/13 12:57:21;;;;;;;;;;;;;;;-0.21;60.71;101360.41;5012714;28;868;-57
2022/01/13 12:59:47;;;;;;;;;;;;;;;0.09;59.46;101361.88;4994906;28;1890;-56
2022/01/13 13:02:14;;;;;;;;;;;;;;;0.49;59.58;101370.56;5012320;28;947;-57
2022/01/13 13:04:41;;;;;;;;;;;;;;;0.87;58.52;101366.94;4994453;28;1189;-57
2022/01/13 13:07:07;;;;;;;;;;;;;;;1.31;58.19;101371.84;5012598;28;875;-57
2022/01/13 13:09:34;;;;;;;;;;;;;;;1.56;57.73;101370.56;5012462;28;984;-57
2022/01/13 13:12:02;;;;;;;;;;;;;;;1.71;55.88;101368.59;5012523;28;853;-56
2022/01/13 13:14:34;;;;;;;;;;;;;;;1.63;56.04;101370.16;5012392;28;924;-57
2022/01/13 13:17:02;;;;;;;;;;;;;;;1.59;56.71;101369.13;5012285;28;821;-57
2022/01/13 13:19:37;;;;;;;;;;;;;;;1.20;56.07;101375.88;5012360;28;888;-57
2022/01/13 13:22:08;;;;;;;;;;;;;;;0.77;56.75;101366.00;5012052;28;1891;-57
2022/01/13 13:24:37;;;;;;;;;;;;;;;0.80;57.99;101370.03;4994515;28;884;-57
2022/01/13 13:27:04;;;;;;;;;;;;;;;1.19;57.69;101349.72;5012141;28;873;-57
2022/01/13 13:29:31;;;;;;;;;;;;;;;1.13;56.97;101354.50;5012293;28;871;-57
2022/01/13 13:31:58;;;;;;;;;;;;;;;0.47;57.38;101364.59;5012089;28;904;-57